Time;durP1;ratioP1;P1;durP2;ratioP2;P2;SDS_P1;SDS_P2;PMS_P1;PMS_P2;Temp;Humidity;BMP_temperature;BMP_pressure;BME280_temperature;BME280_humidity;BME280_pressure;Samples;Min_cycle;Max_cycle;Signal;HPM_P1;HPM_P2
2021/05/21 00:01:12;;;;;;;3.10;2.90;;;;;;;12.60;67.35;94095.91;828401;71;32447;-78
2021/05/21 00:16:14;;;;;;;3.72;3.47;;;;;;;12.48;67.92;94083.91;827686;71;32753;-77
2021/05/21 00:31:15;;;;;;;4.00;3.70;;;;;;;12.36;68.37;94097.67;827387;71;32696;-76
2021/05/21 00:46:09;;;;;;;4.30;3.90;;;;;;;12.30;69.02;94106.24;828299;71;30207;-78
2021/05/21 01:01:16;;;;;;;4.20;3.90;;;;;;;12.28;69.33;94130.00;833996;71;32724;-77
2021/05/21 01:16:16;;;;;;;4.90;4.50;;;;;;;12.33;69.71;94146.97;834055;71;32755;-76
2021/05/21 01:31:09;;;;;;;4.30;4.00;;;;;;;12.39;69.71;94151.77;834158;71;29604;-77
2021/05/21 01:46:08;;;;;;;3.62;3.42;;;;;;;12.41;70.20;94161.45;828621;71;29788;-76
2021/05/21 02:01:14;;;;;;;3.45;3.25;;;;;;;12.38;69.98;94168.63;829142;71;32710;-77
2021/05/21 02:16:14;;;;;;;3.75;3.45;;;;;;;12.37;73.38;94161.83;827486;71;32711;-75
2021/05/21 02:31:08;;;;;;;3.55;3.25;;;;;;;12.32;75.46;94155.38;829838;71;30171;-77
2021/05/21 02:46:15;;;;;;;2.90;2.70;;;;;;;12.25;76.25;94162.16;823091;71;32725;-81
2021/05/21 03:01:48;;;;;;;3.10;2.90;;;;;;;11.91;77.06;94131.53;834072;71;29761;-77
2021/05/21 03:16:16;;;;;;;2.50;2.40;;;;;;;12.16;77.65;94198.97;834164;71;31767;-78
2021/05/21 03:31:14;;;;;;;3.00;2.80;;;;;;;12.14;78.41;94195.88;833987;71;31562;-77
2021/05/21 03:46:15;;;;;;;3.60;3.27;;;;;;;12.11;78.83;94202.52;833954;71;32198;-78
2021/05/21 04:01:12;;;;;;;4.53;4.12;;;;;;;12.28;78.44;94207.05;834158;71;30845;-76
2021/05/21 04:16:16;;;;;;;4.80;4.40;;;;;;;12.38;78.55;94229.14;834007;71;32213;-76
2021/05/21 04:31:12;;;;;;;6.45;4.55;;;;;;;12.38;77.74;94229.14;828273;71;30976;-78
2021/05/21 04:46:09;;;;;;;4.10;3.80;;;;;;;12.45;77.18;94241.08;828156;71;29078;-75
2021/05/21 05:01:15;;;;;;;3.92;3.62;;;;;;;12.50;76.92;94268.58;833980;71;32228;-75
2021/05/21 05:16:14;;;;;;;3.33;3.12;;;;;;;12.56;77.13;94282.61;834458;71;31682;-79
2021/05/21 05:31:14;;;;;;;2.75;2.60;;;;;;;12.61;77.04;94314.06;827600;71;32259;-76
2021/05/21 05:46:10;;;;;;;3.70;3.40;;;;;;;12.70;76.21;94330.44;828486;71;29312;-76
2021/05/21 06:01:14;;;;;;;2.90;2.80;;;;;;;12.93;75.62;94354.81;829056;71;31741;-77
2021/05/21 06:16:08;;;;;;;3.00;2.80;;;;;;;13.56;74.45;94357.50;828327;71;28686;-77
2021/05/21 06:31:13;;;;;;;2.90;2.70;;;;;;;14.12;72.03;94351.60;829379;71;29276;-76
2021/05/21 06:46:21;;;;;;;3.62;3.33;;;;;;;14.63;69.78;94359.95;828247;71;31743;-77
2021/05/21 07:01:09;;;;;;;4.90;4.50;;;;;;;14.67;68.31;94375.18;834375;71;29732;-77
2021/05/21 07:16:14;;;;;;;3.35;3.05;;;;;;;14.73;66.85;94391.84;834929;71;31799;-76
2021/05/21 07:31:15;;;;;;;3.40;3.20;;;;;;;14.69;66.38;94421.30;833906;71;32723;-76
2021/05/21 07:46:14;;;;;;;4.00;3.70;;;;;;;16.80;64.37;94420.94;823323;71;33150;-76
2021/05/21 08:01:09;;;;;;;4.87;4.47;;;;;;;17.95;58.47;94425.27;828317;71;30215;-77
2021/05/21 08:16:14;;;;;;;5.70;4.25;;;;;;;17.95;57.02;94438.55;827836;71;32628;-80
2021/05/21 08:31:20;;;;;;;4.60;4.17;;;;;;;18.25;55.23;94458.71;827451;71;32711;-76
2021/05/21 08:46:10;;;;;;;7.08;6.45;;;;;;;17.89;55.27;94474.97;794118;74;30928;-74
2021/05/21 09:01:57;;;;;;;5.37;4.87;;;;;;;17.23;56.41;94492.61;827419;71;32749;-75
2021/05/21 09:16:23;;;;;;;5.87;5.40;;;;;;;16.91;57.72;94496.84;827423;71;33846;-75
2021/05/21 09:31:22;;;;;;;6.78;5.20;;;;;;;16.94;57.81;94506.81;827657;71;32684;-76
2021/05/21 09:46:15;;;;;;;5.55;5.15;;;;;;;16.78;57.41;94519.30;821075;71;32759;-78
2021/05/21 10:01:15;;;;;;;5.53;5.08;;;;;;;16.39;59.69;94538.56;827603;71;32665;-76
2021/05/21 10:16:08;;;;;;;6.53;5.92;;;;;;;16.08;62.39;94555.35;831195;70;29302;-78
2021/05/21 10:31:09;;;;;;;5.83;5.30;;;;;;;16.64;60.65;94558.55;833894;71;29697;-77
2021/05/21 10:46:15;;;;;;;5.83;5.35;;;;;;;18.69;56.50;94547.81;829832;71;32595;-77
2021/05/21 11:01:17;;;;;;;5.75;5.35;;;;;;;19.10;52.79;94544.56;827496;71;33258;-79
2021/05/21 11:16:14;;;;;;;5.70;5.20;;;;;;;18.42;52.24;94565.48;825763;71;29837;-77
2021/05/21 11:31:33;;;;;;;5.22;4.83;;;;;;;17.95;53.37;94568.64;827886;71;33169;-78
2021/05/21 11:46:20;;;;;;;139.00;119.65;;;;;;;18.65;60.79;94573.52;824551;71;33483;-76
2021/05/21 12:01:08;;;;;;;5.70;5.20;;;;;;;18.83;52.25;94576.15;834441;71;29685;-75
2021/05/21 12:16:24;;;;;;;5.25;4.85;;;;;;;18.53;53.06;94554.39;833871;71;29700;-75
2021/05/21 12:31:41;;;;;;;5.97;4.97;;;;;;;19.75;50.86;94569.63;821023;71;32817;-77
2021/05/21 12:46:28;;;;;;;3.72;3.52;;;;;;;19.77;48.36;94564.16;828101;71;33234;-78
2021/05/21 13:01:08;;;;;;;3.70;3.40;;;;;;;19.85;48.23;94578.96;834048;71;29763;-74
2021/05/21 13:16:09;;;;;;;5.00;4.00;;;;;;;20.24;48.19;94584.44;834173;71;29694;-77
2021/05/21 15:01:52;;;;;;;4.42;4.12;;;;;;;19.17;49.58;94582.01;791543;73;31475;-77
2021/05/21 15:31:20;;;;;;;4.40;4.10;;;;;;;19.54;47.58;94567.16;834088;71;32656;-74
2021/05/21 16:01:08;;;;;;;4.00;3.70;;;;;;;19.32;47.35;94557.87;823619;71;30655;-77
2021/05/21 16:16:09;;;;;;;4.22;3.80;;;;;;;19.01;46.73;94554.03;828057;71;30588;-77
2021/05/21 16:31:09;;;;;;;4.87;4.47;;;;;;;18.75;47.57;94545.13;833848;71;30270;-78
2021/05/21 16:46:09;;;;;;;4.42;4.03;;;;;;;18.45;48.39;94568.58;833850;71;30306;-76
2021/05/21 17:01:16;;;;;;;4.97;4.10;;;;;;;18.14;49.47;94603.16;834190;71;31711;-78
2021/05/21 21:01:52;;;;;;;9.05;8.15;;;;;;;13.78;66.69;94701.30;824967;71;29996;-76
2021/05/21 21:16:24;;;;;;;11.18;9.68;;;;;;;13.62;67.36;94683.23;820499;71;30262;-75
2021/05/21 21:31:40;;;;;;;13.08;9.85;;;;;;;13.47;68.43;94671.73;821021;71;29789;-79
2021/05/21 22:31:32;;;;;;;15.95;10.00;;;;;;;12.90;70.46;94663.01;817141;71;31940;-78
2021/05/21 22:46:17;;;;;;;14.35;10.18;;;;;;;12.80;71.03;94652.16;825311;71;32961;-77
2021/05/21 23:01:16;;;;;;;13.05;10.32;;;;;;;12.68;71.37;94647.95;820648;71;31892;-75
2021/05/21 23:16:15;;;;;;;13.10;9.95;;;;;;;12.58;71.79;94654.20;823502;71;29321;-78
2021/05/21 23:31:28;;;;;;;11.93;9.85;;;;;;;12.49;72.33;94658.63;821556;71;29351;-78
2021/05/21 23:46:09;;;;;;;12.95;9.23;;;;;;;12.37;72.49;94672.83;828511;71;29274;-78
